Terminal Aerodrome Forecast
Issued by NWS Corpus Christi, TX

Current Version | Previous Version | Text Only | Print | Product List | Glossary Off
Versions: 1 2 3 4 5 6 7 8 9 10 11 12 13 14 15 16 17 18 19

000
FTUS44 KCRP 020500
TAFVCT
TAF
KVCT 020525Z 0206/0306 14007KT P6SM SCT020
     FM020900 VRB03KT 6SM BR SCT012
      TEMPO 0209/0213 3SM BR BKN012
     FM021500 15010KT P6SM VCSH BKN022
     FM021800 14014G20KT P6SM VCTS BKN035CB
      TEMPO 0218/0222 3SM TSRA OVC025CB
     FM030100 14011KT P6SM SCT020 BKN120=

USA.gov is the U.S. government's official web portal to all federal, state and local government web resources and services.